Time;durP1;ratioP1;P1;durP2;ratioP2;P2;SDS_P1;SDS_P2;PMS_P1;PMS_P2;Temp;Humidity;BMP_temperature;BMP_pressure;BME280_temperature;BME280_humidity;BME280_pressure;Samples;Min_cycle;Max_cycle;Signal;HPM_P1;HPM_P2
2023/09/30 00:00:08;;;;;;;;;;;21.40;54.10;;;;;;9960898;29;94427;-69
2023/09/30 00:05:10;;;;;;;;;;;21.40;54.20;;;;;;9964298;29;93062;-69
2023/09/30 00:10:12;;;;;;;;;;;21.40;54.20;;;;;;9969732;29;94497;-69
2023/09/30 00:15:14;;;;;;;;;;;21.40;54.00;;;;;;9961776;29;95392;-69
2023/09/30 00:20:17;;;;;;;;;;;21.30;54.10;;;;;;9964699;29;97359;-68
2023/09/30 00:25:20;;;;;;;;;;;21.30;54.10;;;;;;9952499;29;93731;-69
2023/09/30 00:30:22;;;;;;;;;;;21.30;53.90;;;;;;9968953;29;94760;-69
2023/09/30 00:35:24;;;;;;;;;;;21.30;53.90;;;;;;9970662;29;94395;-69
2023/09/30 00:40:26;;;;;;;;;;;21.30;53.80;;;;;;9968603;29;94477;-69
2023/09/30 00:45:28;;;;;;;;;;;21.30;53.80;;;;;;9966911;29;93811;-69
2023/09/30 00:50:30;;;;;;;;;;;21.40;53.80;;;;;;9961516;29;93451;-69
2023/09/30 00:55:32;;;;;;;;;;;21.40;53.70;;;;;;9968132;29;93919;-69
2023/09/30 01:05:54;;;;;;;;;;;21.30;53.50;;;;;;10245642;23;95685;-65
2023/09/30 01:10:56;;;;;;;;;;;21.40;53.50;;;;;;10039862;28;95671;-68
2023/09/30 01:15:58;;;;;;;;;;;21.40;53.40;;;;;;10040367;28;93408;-67
2023/09/30 01:21:03;;;;;;;;;;;21.30;53.10;;;;;;10043184;28;93831;-66
2023/09/30 01:26:06;;;;;;;;;;;21.40;53.10;;;;;;10045135;28;92739;-68
2023/09/30 01:31:08;;;;;;;;;;;21.40;53.20;;;;;;10043654;28;93440;-67
2023/09/30 01:36:10;;;;;;;;;;;21.40;53.10;;;;;;10044689;28;93896;-68
2023/09/30 01:41:12;;;;;;;;;;;21.40;53.20;;;;;;10044345;28;94502;-68
2023/09/30 01:46:13;;;;;;;;;;;21.30;52.80;;;;;;10044085;28;92754;-68
2023/09/30 01:51:15;;;;;;;;;;;21.30;52.90;;;;;;10042985;28;93512;-65
2023/09/30 01:56:17;;;;;;;;;;;21.30;52.90;;;;;;10043938;28;97545;-65
2023/09/30 02:01:19;;;;;;;;;;;21.30;52.70;;;;;;10044560;28;97145;-65
2023/09/30 02:06:20;;;;;;;;;;;21.30;52.80;;;;;;10050477;28;94496;-66
2023/09/30 02:11:22;;;;;;;;;;;21.30;52.80;;;;;;10050851;28;93441;-68
2023/09/30 02:16:24;;;;;;;;;;;21.30;52.70;;;;;;10053667;28;94679;-67
2023/09/30 02:21:28;;;;;;;;;;;21.30;52.50;;;;;;10036842;28;93386;-67
2023/09/30 02:26:30;;;;;;;;;;;21.30;52.50;;;;;;10044140;28;94450;-65
2023/09/30 02:31:32;;;;;;;;;;;21.30;52.90;;;;;;10043118;28;93489;-65
2023/09/30 02:36:37;;;;;;;;;;;21.30;52.50;;;;;;10043444;28;92643;-65
2023/09/30 02:41:39;;;;;;;;;;;21.30;52.60;;;;;;10043219;28;94505;-65
2023/09/30 02:46:41;;;;;;;;;;;21.20;52.40;;;;;;10041197;28;93419;-65
2023/09/30 02:51:44;;;;;;;;;;;21.20;52.40;;;;;;10040220;28;96576;-67
2023/09/30 02:56:46;;;;;;;;;;;21.20;52.40;;;;;;10043124;28;94365;-65
2023/09/30 03:01:48;;;;;;;;;;;21.20;52.30;;;;;;10041312;28;93854;-65
2023/09/30 03:06:50;;;;;;;;;;;21.20;52.20;;;;;;10041185;28;93660;-66
2023/09/30 03:11:52;;;;;;;;;;;21.20;52.30;;;;;;10041094;28;94529;-65
2023/09/30 03:16:54;;;;;;;;;;;21.20;52.20;;;;;;10042141;28;93468;-65
2023/09/30 03:21:56;;;;;;;;;;;21.20;52.20;;;;;;10042364;28;93215;-65
2023/09/30 03:26:58;;;;;;;;;;;21.20;52.20;;;;;;10041765;28;92690;-65
2023/09/30 03:31:59;;;;;;;;;;;21.20;52.20;;;;;;10031518;28;94370;-67
2023/09/30 03:37:01;;;;;;;;;;;21.20;52.20;;;;;;10042234;28;94346;-66
2023/09/30 03:42:03;;;;;;;;;;;21.10;52.10;;;;;;10044367;28;96195;-67
2023/09/30 03:47:05;;;;;;;;;;;21.20;52.10;;;;;;10037588;28;93512;-67
2023/09/30 03:52:08;;;;;;;;;;;21.10;52.10;;;;;;10047803;28;93469;-67
2023/09/30 03:57:12;;;;;;;;;;;21.10;52.00;;;;;;10046354;28;92556;-67
2023/09/30 04:02:14;;;;;;;;;;;21.10;52.00;;;;;;10050050;28;94405;-67
2023/09/30 04:07:16;;;;;;;;;;;21.10;52.10;;;;;;10048308;28;93413;-67
2023/09/30 04:12:18;;;;;;;;;;;21.10;52.00;;;;;;10053059;28;94961;-67
2023/09/30 04:17:23;;;;;;;;;;;21.10;52.10;;;;;;10050378;28;93240;-67
2023/09/30 04:22:25;;;;;;;;;;;21.10;52.10;;;;;;10047365;28;94355;-67
2023/09/30 04:27:27;;;;;;;;;;;21.10;52.20;;;;;;10045380;28;95020;-67
2023/09/30 04:32:29;;;;;;;;;;;21.10;52.10;;;;;;10039874;28;97354;-67
2023/09/30 04:37:31;;;;;;;;;;;21.10;52.00;;;;;;10045523;28;93899;-67
2023/09/30 04:42:36;;;;;;;;;;;21.10;51.90;;;;;;10048163;28;93456;-67
2023/09/30 04:47:38;;;;;;;;;;;21.10;51.90;;;;;;10040551;28;93472;-67
2023/09/30 04:52:41;;;;;;;;;;;21.10;52.00;;;;;;10045981;28;93739;-67
2023/09/30 04:57:44;;;;;;;;;;;21.10;51.80;;;;;;10046684;28;94401;-66
2023/09/30 05:02:46;;;;;;;;;;;21.10;52.20;;;;;;10053203;28;93545;-68
2023/09/30 05:07:48;;;;;;;;;;;21.10;51.90;;;;;;10045328;28;93715;-66
2023/09/30 05:12:53;;;;;;;;;;;21.20;52.00;;;;;;10046368;28;94634;-67
2023/09/30 05:17:55;;;;;;;;;;;21.10;51.80;;;;;;10045394;28;93338;-67
2023/09/30 05:22:58;;;;;;;;;;;21.20;51.90;;;;;;10041731;28;96075;-68
2023/09/30 05:28:00;;;;;;;;;;;21.20;51.90;;;;;;10048364;28;94487;-67
2023/09/30 05:33:03;;;;;;;;;;;21.20;51.90;;;;;;10044427;28;93801;-67
2023/09/30 05:38:06;;;;;;;;;;;21.20;52.00;;;;;;10036347;28;94604;-67
2023/09/30 05:43:08;;;;;;;;;;;21.20;51.90;;;;;;10045179;28;93764;-67
2023/09/30 05:48:10;;;;;;;;;;;21.20;52.00;;;;;;10042369;28;94516;-67
2023/09/30 05:53:12;;;;;;;;;;;21.20;52.00;;;;;;10045537;28;93515;-67
2023/09/30 05:58:16;;;;;;;;;;;21.10;51.90;;;;;;10053392;28;93123;-67
2023/09/30 06:03:18;;;;;;;;;;;21.10;51.90;;;;;;10051778;28;94575;-67
2023/09/30 06:08:20;;;;;;;;;;;21.10;51.90;;;;;;10050862;28;94553;-67
2023/09/30 06:13:22;;;;;;;;;;;21.20;52.10;;;;;;10050112;28;95795;-66
2023/09/30 06:18:24;;;;;;;;;;;21.10;52.10;;;;;;10049889;28;93548;-66
2023/09/30 06:23:26;;;;;;;;;;;21.20;52.10;;;;;;10047843;28;92688;-67
2023/09/30 06:28:31;;;;;;;;;;;21.20;52.20;;;;;;10052632;28;94202;-66
2023/09/30 06:33:33;;;;;;;;;;;21.10;52.10;;;;;;10033219;28;94920;-67
2023/09/30 06:38:36;;;;;;;;;;;21.10;52.10;;;;;;10042265;28;93806;-67
2023/09/30 06:43:38;;;;;;;;;;;21.20;52.20;;;;;;10043792;28;94536;-67
2023/09/30 06:48:42;;;;;;;;;;;21.10;52.20;;;;;;10043468;28;92113;-67
2023/09/30 06:53:45;;;;;;;;;;;21.10;52.20;;;;;;10044178;28;93782;-67
2023/09/30 06:58:47;;;;;;;;;;;21.10;52.40;;;;;;10043758;28;94758;-67
2023/09/30 07:03:49;;;;;;;;;;;21.10;52.50;;;;;;10037282;28;97163;-67
2023/09/30 07:08:51;;;;;;;;;;;21.10;52.60;;;;;;10040134;28;94477;-66
2023/09/30 07:13:53;;;;;;;;;;;21.10;53.00;;;;;;10049341;28;94740;-65
2023/09/30 07:18:57;;;;;;;;;;;21.10;53.40;;;;;;10052520;28;94625;-69
2023/09/30 07:23:59;;;;;;;;;;;21.10;53.70;;;;;;10045621;28;94239;-67
2023/09/30 07:29:01;;;;;;;;;;;21.10;54.50;;;;;;10048202;28;92688;-65
2023/09/30 07:34:03;;;;;;;;;;;21.20;54.60;;;;;;10055004;28;94893;-66
2023/09/30 07:39:05;;;;;;;;;;;21.20;55.30;;;;;;10049387;28;92195;-67
2023/09/30 07:44:08;;;;;;;;;;;21.20;55.30;;;;;;10053505;28;93593;-67
2023/09/30 07:49:10;;;;;;;;;;;21.20;55.80;;;;;;10053151;28;94499;-67
2023/09/30 07:54:12;;;;;;;;;;;21.20;55.30;;;;;;10043615;28;97118;-67
2023/09/30 07:59:33;;;;;;;;;;;21.20;54.80;;;;;;10039895;28;94415;-67
2023/09/30 08:04:35;;;;;;;;;;;21.20;54.60;;;;;;10053419;28;94519;-66
2023/09/30 08:09:37;;;;;;;;;;;21.10;54.30;;;;;;10054220;28;93459;-65
2023/09/30 08:14:39;;;;;;;;;;;21.20;54.20;;;;;;10058404;28;94456;-67
2023/09/30 08:19:41;;;;;;;;;;;21.20;54.20;;;;;;10056653;28;93449;-66
2023/09/30 08:24:45;;;;;;;;;;;21.20;54.80;;;;;;10055588;28;93934;-67
2023/09/30 08:29:47;;;;;;;;;;;21.20;55.00;;;;;;10049553;28;92590;-67
2023/09/30 08:34:49;;;;;;;;;;;21.20;54.90;;;;;;10047388;28;94218;-67
2023/09/30 08:39:51;;;;;;;;;;;21.30;54.80;;;;;;10045198;28;93513;-67
2023/09/30 08:44:56;;;;;;;;;;;21.30;54.60;;;;;;10035938;28;96916;-69
2023/09/30 08:50:05;;;;;;;;;;;21.30;54.60;;;;;;10045547;28;94154;-68
2023/09/30 08:55:08;;;;;;;;;;;21.30;54.60;;;;;;10045313;28;93741;-67
2023/09/30 09:00:13;;;;;;;;;;;21.30;54.30;;;;;;10041712;28;94440;-67
2023/09/30 09:05:15;;;;;;;;;;;21.40;54.50;;;;;;10046431;28;94522;-67
2023/09/30 09:10:18;;;;;;;;;;;21.40;54.40;;;;;;10046409;28;93886;-66
2023/09/30 09:15:21;;;;;;;;;;;21.40;54.40;;;;;;10045994;28;94803;-67
2023/09/30 09:20:25;;;;;;;;;;;21.50;55.40;;;;;;10039180;28;93860;-67
2023/09/30 09:25:28;;;;;;;;;;;21.50;55.40;;;;;;10048910;28;93355;-68
2023/09/30 09:30:30;;;;;;;;;;;21.60;55.30;;;;;;10042030;28;94868;-69
2023/09/30 09:35:33;;;;;;;;;;;21.60;55.40;;;;;;10040535;28;97253;-70
2023/09/30 09:40:36;;;;;;;;;;;21.70;55.30;;;;;;10037882;28;92652;-66
2023/09/30 09:45:37;;;;;;;;;;;21.70;55.70;;;;;;10042608;28;94409;-70
2023/09/30 09:50:42;;;;;;;;;;;21.80;56.10;;;;;;10043492;28;92865;-69
2023/09/30 09:55:47;;;;;;;;;;;21.80;55.90;;;;;;10045190;28;94739;-70
2023/09/30 10:00:48;;;;;;;;;;;21.80;55.90;;;;;;10046482;28;93889;-69
2023/09/30 10:05:50;;;;;;;;;;;21.90;56.00;;;;;;10049910;28;93448;-69
2023/09/30 10:10:52;;;;;;;;;;;21.90;55.80;;;;;;10051972;28;94036;-68
2023/09/30 10:15:54;;;;;;;;;;;21.90;55.90;;;;;;10057508;28;94618;-69
2023/09/30 10:21:06;;;;;;;;;;;21.90;56.00;;;;;;10056857;28;93435;-70
2023/09/30 10:26:08;;;;;;;;;;;21.90;55.90;;;;;;10051493;28;95698;-70
2023/09/30 10:31:16;;;;;;;;;;;21.90;55.90;;;;;;10042895;28;93455;-70
2023/09/30 10:36:25;;;;;;;;;;;21.90;56.00;;;;;;10047434;28;93664;-69
2023/09/30 10:41:39;;;;;;;;;;;21.90;56.00;;;;;;10045226;28;94577;-70
2023/09/30 10:46:41;;;;;;;;;;;21.90;56.10;;;;;;10047604;28;94684;-69
2023/09/30 10:51:44;;;;;;;;;;;21.90;56.30;;;;;;10045142;28;93759;-69
2023/09/30 10:56:45;;;;;;;;;;;21.80;57.30;;;;;;10046313;28;93805;-68
2023/09/30 11:01:48;;;;;;;;;;;21.80;56.50;;;;;;10045101;28;91952;-69
2023/09/30 11:06:52;;;;;;;;;;;21.80;56.60;;;;;;10043233;28;113963;-68
2023/09/30 11:11:54;;;;;;;;;;;21.70;56.80;;;;;;10042643;28;93808;-69
2023/09/30 11:16:59;;;;;;;;;;;21.70;57.10;;;;;;10041437;28;97333;-69
2023/09/30 11:22:01;;;;;;;;;;;21.60;57.10;;;;;;10043485;28;94658;-69
2023/09/30 11:27:04;;;;;;;;;;;21.50;57.20;;;;;;10048102;28;94253;-69
2023/09/30 11:32:06;;;;;;;;;;;21.50;57.40;;;;;;10043788;28;93827;-69
2023/09/30 11:37:10;;;;;;;;;;;21.50;57.50;;;;;;10051470;28;94413;-68
2023/09/30 11:42:17;;;;;;;;;;;21.40;57.50;;;;;;10041366;28;94448;-68
2023/09/30 11:47:28;;;;;;;;;;;21.40;57.80;;;;;;10042188;28;96373;-69
2023/09/30 11:52:29;;;;;;;;;;;21.40;57.90;;;;;;10033359;28;93674;-68
2023/09/30 11:57:31;;;;;;;;;;;21.40;57.90;;;;;;10040763;28;95774;-69
2023/09/30 12:02:34;;;;;;;;;;;21.30;57.90;;;;;;10048314;28;94499;-69
2023/09/30 12:07:37;;;;;;;;;;;21.40;57.90;;;;;;10050067;28;96834;-69
2023/09/30 12:12:39;;;;;;;;;;;21.40;58.00;;;;;;10053154;28;93354;-69
2023/09/30 12:17:42;;;;;;;;;;;21.30;57.90;;;;;;10053281;28;92686;-70
2023/09/30 12:22:44;;;;;;;;;;;21.40;58.00;;;;;;10050136;28;94150;-70
2023/09/30 12:27:46;;;;;;;;;;;21.40;58.10;;;;;;10049150;28;93802;-70
2023/09/30 12:32:48;;;;;;;;;;;21.40;58.20;;;;;;10048884;28;93448;-70
2023/09/30 12:37:50;;;;;;;;;;;21.40;58.30;;;;;;10048758;28;94450;-70
2023/09/30 12:42:52;;;;;;;;;;;21.50;58.20;;;;;;10047833;28;93669;-70
2023/09/30 12:47:56;;;;;;;;;;;21.50;58.30;;;;;;10043344;28;93648;-70
2023/09/30 12:52:59;;;;;;;;;;;21.50;58.30;;;;;;10048684;28;93563;-69
2023/09/30 12:58:00;;;;;;;;;;;21.50;58.20;;;;;;10042984;28;96748;-70
2023/09/30 13:03:02;;;;;;;;;;;21.60;58.30;;;;;;10047794;28;94600;-70
2023/09/30 13:08:04;;;;;;;;;;;21.60;58.30;;;;;;10048730;28;93313;-70
2023/09/30 13:13:06;;;;;;;;;;;21.60;58.30;;;;;;10045168;28;94612;-70
2023/09/30 13:18:08;;;;;;;;;;;21.60;58.30;;;;;;10047339;28;93889;-70
2023/09/30 13:23:10;;;;;;;;;;;21.60;58.50;;;;;;10045090;28;93398;-70
2023/09/30 13:28:11;;;;;;;;;;;21.60;58.50;;;;;;10045722;28;93443;-70
2023/09/30 13:33:13;;;;;;;;;;;21.50;58.40;;;;;;10045722;28;93489;-70
2023/09/30 13:38:16;;;;;;;;;;;21.50;58.50;;;;;;10046115;28;93629;-70
2023/09/30 13:43:18;;;;;;;;;;;21.50;58.60;;;;;;10044330;28;93458;-70
2023/09/30 13:48:19;;;;;;;;;;;21.50;58.70;;;;;;10043313;28;95891;-67
2023/09/30 13:53:21;;;;;;;;;;;21.40;58.60;;;;;;10047320;28;93712;-68
2023/09/30 13:58:24;;;;;;;;;;;21.40;58.70;;;;;;10052146;28;93902;-70
2023/09/30 14:03:26;;;;;;;;;;;21.40;58.80;;;;;;10068416;28;94819;-70
2023/09/30 14:08:28;;;;;;;;;;;21.40;58.80;;;;;;10088765;28;92521;-70
2023/09/30 14:13:29;;;;;;;;;;;21.40;58.80;;;;;;10091004;28;95118;-70
2023/09/30 14:18:31;;;;;;;;;;;21.30;58.90;;;;;;10089022;28;92564;-70
2023/09/30 14:23:33;;;;;;;;;;;21.30;58.90;;;;;;10049476;28;92632;-71
2023/09/30 14:28:35;;;;;;;;;;;21.30;59.00;;;;;;10046770;28;93810;-70
2023/09/30 14:33:36;;;;;;;;;;;21.30;59.00;;;;;;10044650;28;93358;-70
2023/09/30 14:38:38;;;;;;;;;;;21.30;59.00;;;;;;10043753;28;99362;-68
2023/09/30 14:43:40;;;;;;;;;;;21.30;59.00;;;;;;10045298;28;94580;-68
2023/09/30 14:48:43;;;;;;;;;;;21.30;59.00;;;;;;10042892;28;94416;-68
2023/09/30 14:53:45;;;;;;;;;;;21.20;59.00;;;;;;10044339;28;93268;-69
2023/09/30 14:58:47;;;;;;;;;;;21.30;59.10;;;;;;10043010;28;94791;-69
2023/09/30 15:03:49;;;;;;;;;;;21.20;59.00;;;;;;10042375;28;94418;-69
2023/09/30 15:08:50;;;;;;;;;;;21.30;59.10;;;;;;10043453;28;95516;-69
2023/09/30 15:13:52;;;;;;;;;;;21.20;59.10;;;;;;10044912;28;96428;-68
2023/09/30 15:18:54;;;;;;;;;;;21.30;59.10;;;;;;10043035;28;93481;-69
2023/09/30 15:23:56;;;;;;;;;;;21.30;59.20;;;;;;10042926;28;94338;-69
2023/09/30 15:28:58;;;;;;;;;;;21.30;59.20;;;;;;10040471;28;96218;-69
2023/09/30 15:34:00;;;;;;;;;;;21.30;59.10;;;;;;10042572;28;94570;-69
2023/09/30 15:39:03;;;;;;;;;;;21.30;59.20;;;;;;10048303;28;94561;-69
2023/09/30 15:44:05;;;;;;;;;;;21.30;59.20;;;;;;10049767;28;93567;-69
2023/09/30 15:49:07;;;;;;;;;;;21.30;59.10;;;;;;10050022;28;94732;-69
2023/09/30 15:54:09;;;;;;;;;;;21.30;59.10;;;;;;10051143;28;93764;-69
2023/09/30 15:59:11;;;;;;;;;;;21.30;59.10;;;;;;10050219;28;93405;-69
2023/09/30 16:04:13;;;;;;;;;;;21.30;59.10;;;;;;10052500;28;93573;-69
2023/09/30 16:09:15;;;;;;;;;;;21.30;59.10;;;;;;10055324;28;94690;-69
2023/09/30 16:14:17;;;;;;;;;;;21.30;59.10;;;;;;10053163;28;94980;-69
2023/09/30 16:19:19;;;;;;;;;;;21.30;59.10;;;;;;10048944;28;96817;-69
2023/09/30 16:24:21;;;;;;;;;;;21.30;59.10;;;;;;10054842;28;95031;-70
2023/09/30 16:29:23;;;;;;;;;;;21.30;59.20;;;;;;10049116;28;94376;-68
2023/09/30 16:34:25;;;;;;;;;;;21.30;59.20;;;;;;10045450;28;93298;-69
2023/09/30 16:39:27;;;;;;;;;;;21.30;59.30;;;;;;10046984;28;94489;-69
2023/09/30 16:44:28;;;;;;;;;;;21.30;59.30;;;;;;10052331;28;95022;-71
2023/09/30 16:49:31;;;;;;;;;;;21.30;59.40;;;;;;10046179;28;94645;-69
2023/09/30 16:54:33;;;;;;;;;;;21.30;59.50;;;;;;10049783;28;93676;-69
2023/09/30 16:59:34;;;;;;;;;;;21.30;59.40;;;;;;10047313;28;94553;-69
2023/09/30 17:04:40;;;;;;;;;;;21.30;59.50;;;;;;10046362;28;94869;-68
2023/09/30 17:09:43;;;;;;;;;;;21.20;59.40;;;;;;10043624;28;97132;-69
2023/09/30 17:14:45;;;;;;;;;;;21.20;59.50;;;;;;10048054;28;93989;-69
2023/09/30 17:19:48;;;;;;;;;;;21.20;59.70;;;;;;10048906;28;94400;-69
2023/09/30 17:24:50;;;;;;;;;;;21.20;59.60;;;;;;10047113;28;94258;-70
2023/09/30 17:29:52;;;;;;;;;;;21.20;59.60;;;;;;10046852;28;93033;-69
2023/09/30 17:34:53;;;;;;;;;;;21.20;59.60;;;;;;10046833;28;93820;-70
2023/09/30 17:39:56;;;;;;;;;;;21.20;59.60;;;;;;10046269;28;93208;-69
2023/09/30 17:44:57;;;;;;;;;;;21.20;59.70;;;;;;10047662;28;92773;-70
2023/09/30 17:49:59;;;;;;;;;;;21.20;59.70;;;;;;10044681;28;93361;-71
2023/09/30 17:55:01;;;;;;;;;;;21.20;59.70;;;;;;10043220;28;94421;-70
2023/09/30 18:00:03;;;;;;;;;;;21.20;59.60;;;;;;10044020;28;96902;-70
2023/09/30 18:05:05;;;;;;;;;;;21.20;59.60;;;;;;10050767;28;94794;-70
2023/09/30 18:10:08;;;;;;;;;;;21.20;59.60;;;;;;10047756;28;94469;-70
2023/09/30 18:15:11;;;;;;;;;;;21.20;60.60;;;;;;10068830;28;94393;-70
2023/09/30 18:20:13;;;;;;;;;;;21.20;59.60;;;;;;10059754;28;94187;-70
2023/09/30 18:25:18;;;;;;;;;;;21.10;59.60;;;;;;10057000;28;94457;-70
2023/09/30 18:30:20;;;;;;;;;;;21.10;59.70;;;;;;10051348;28;93669;-70
2023/09/30 18:35:22;;;;;;;;;;;21.10;59.70;;;;;;10049095;28;94282;-69
2023/09/30 18:40:24;;;;;;;;;;;21.10;59.60;;;;;;10046262;28;93635;-70
2023/09/30 18:45:26;;;;;;;;;;;21.10;59.60;;;;;;10043193;28;93810;-71
2023/09/30 18:50:28;;;;;;;;;;;21.10;59.70;;;;;;10042492;28;96846;-70
2023/09/30 18:55:30;;;;;;;;;;;21.10;59.80;;;;;;10044876;28;94468;-70
2023/09/30 19:00:32;;;;;;;;;;;21.10;59.60;;;;;;10042995;28;93494;-70
2023/09/30 19:05:37;;;;;;;;;;;21.10;59.70;;;;;;10043293;28;93503;-71
2023/09/30 19:10:41;;;;;;;;;;;21.10;59.70;;;;;;10040247;28;94502;-70
2023/09/30 19:15:43;;;;;;;;;;;21.10;59.60;;;;;;10042578;28;95490;-70
2023/09/30 19:20:45;;;;;;;;;;;21.10;59.60;;;;;;10043100;28;92970;-70
2023/09/30 19:25:48;;;;;;;;;;;21.20;59.70;;;;;;10042670;28;92712;-70
2023/09/30 19:30:51;;;;;;;;;;;21.10;59.80;;;;;;10042243;28;94448;-70
2023/09/30 19:35:53;;;;;;;;;;;21.10;59.80;;;;;;10042834;28;94764;-70
2023/09/30 19:40:55;;;;;;;;;;;21.10;59.80;;;;;;10039922;28;96300;-70
2023/09/30 19:46:02;;;;;;;;;;;21.10;59.90;;;;;;10042992;28;93460;-69
2023/09/30 19:51:04;;;;;;;;;;;21.20;59.90;;;;;;10040604;28;97097;-70
2023/09/30 19:56:07;;;;;;;;;;;21.10;59.80;;;;;;10043146;28;94137;-70
2023/09/30 20:01:09;;;;;;;;;;;21.20;60.00;;;;;;10041420;28;93481;-70
2023/09/30 20:06:18;;;;;;;;;;;21.20;59.90;;;;;;10025346;28;93180;-69
2023/09/30 20:11:23;;;;;;;;;;;21.20;59.90;;;;;;10034582;28;94424;-69
2023/09/30 20:16:25;;;;;;;;;;;21.20;59.90;;;;;;10043685;28;93308;-69
2023/09/30 20:21:28;;;;;;;;;;;21.10;59.80;;;;;;10049967;28;93453;-69
2023/09/30 20:26:31;;;;;;;;;;;21.20;59.90;;;;;;10055354;28;93450;-69
2023/09/30 20:31:34;;;;;;;;;;;21.20;60.00;;;;;;10049733;28;96432;-69
2023/09/30 20:36:36;;;;;;;;;;;21.10;59.90;;;;;;10047217;28;94769;-69
2023/09/30 20:41:38;;;;;;;;;;;21.10;59.90;;;;;;10048935;28;93432;-70
2023/09/30 20:46:40;;;;;;;;;;;21.10;59.90;;;;;;10045955;28;94733;-70
2023/09/30 20:51:42;;;;;;;;;;;21.10;60.00;;;;;;10046849;28;94265;-70
2023/09/30 20:56:45;;;;;;;;;;;21.10;59.80;;;;;;10047457;28;93634;-70
2023/09/30 21:01:48;;;;;;;;;;;21.10;60.00;;;;;;10045016;28;93963;-69
2023/09/30 21:06:49;;;;;;;;;;;21.10;60.00;;;;;;10048090;28;92702;-70
2023/09/30 21:11:53;;;;;;;;;;;21.10;60.00;;;;;;10048131;28;93520;-70
2023/09/30 21:16:55;;;;;;;;;;;21.10;60.00;;;;;;10046310;28;93491;-70
2023/09/30 21:21:56;;;;;;;;;;;21.10;60.00;;;;;;10044063;28;96109;-70
2023/09/30 21:26:58;;;;;;;;;;;21.10;59.90;;;;;;10048097;28;94943;-69
2023/09/30 21:32:01;;;;;;;;;;;21.10;60.00;;;;;;10040465;28;93504;-69
2023/09/30 21:37:04;;;;;;;;;;;21.10;60.10;;;;;;10041094;28;94448;-70
2023/09/30 21:42:07;;;;;;;;;;;21.00;60.10;;;;;;10046539;28;93787;-69
2023/09/30 21:47:09;;;;;;;;;;;21.00;60.10;;;;;;10045710;28;93446;-71
2023/09/30 21:52:11;;;;;;;;;;;21.00;60.20;;;;;;10046815;28;93631;-70
2023/09/30 21:57:14;;;;;;;;;;;21.00;60.20;;;;;;10047899;28;92676;-70
2023/09/30 22:02:19;;;;;;;;;;;21.00;60.30;;;;;;10053388;28;96741;-69
2023/09/30 22:07:24;;;;;;;;;;;21.00;60.30;;;;;;10044998;28;92894;-69
2023/09/30 22:12:27;;;;;;;;;;;21.00;60.30;;;;;;10042863;28;95902;-70
2023/09/30 22:17:29;;;;;;;;;;;21.00;60.30;;;;;;10048736;28;93615;-70
2023/09/30 22:22:31;;;;;;;;;;;20.90;60.30;;;;;;10068076;28;93558;-70
2023/09/30 22:27:33;;;;;;;;;;;20.90;60.30;;;;;;10055092;28;94683;-70
2023/09/30 22:32:35;;;;;;;;;;;20.90;60.40;;;;;;10055808;28;94474;-70
2023/09/30 22:37:38;;;;;;;;;;;21.00;60.50;;;;;;10048671;28;93609;-70
2023/09/30 22:42:40;;;;;;;;;;;20.90;60.30;;;;;;10049485;28;94656;-68
2023/09/30 22:47:44;;;;;;;;;;;20.90;60.40;;;;;;10049069;28;92751;-70
2023/09/30 22:52:46;;;;;;;;;;;20.90;60.40;;;;;;10045252;28;94786;-70
2023/09/30 22:57:53;;;;;;;;;;;20.90;60.50;;;;;;10046297;28;95476;-70
2023/09/30 23:02:56;;;;;;;;;;;21.00;60.40;;;;;;10039263;28;95710;-70
2023/09/30 23:07:58;;;;;;;;;;;20.90;60.40;;;;;;10043988;28;97263;-70
2023/09/30 23:12:59;;;;;;;;;;;20.90;60.40;;;;;;10043408;28;94586;-70
2023/09/30 23:18:02;;;;;;;;;;;20.90;60.30;;;;;;10043726;28;93799;-70
2023/09/30 23:23:06;;;;;;;;;;;21.00;60.40;;;;;;10043617;28;94128;-69
2023/09/30 23:28:10;;;;;;;;;;;21.00;60.40;;;;;;10043887;28;93767;-69
2023/09/30 23:33:12;;;;;;;;;;;20.90;60.30;;;;;;10041472;28;93207;-70
2023/09/30 23:38:14;;;;;;;;;;;21.00;60.30;;;;;;10042107;28;93713;-69
2023/09/30 23:43:17;;;;;;;;;;;21.00;60.30;;;;;;10041929;28;93915;-69
2023/09/30 23:48:20;;;;;;;;;;;21.00;60.30;;;;;;10041826;28;94106;-69
2023/09/30 23:53:23;;;;;;;;;;;21.00;60.30;;;;;;10040110;28;95910;-69
2023/09/30 23:58:26;;;;;;;;;;;21.00;60.30;;;;;;10046322;28;93459;-69
